createdAt,value
2018-04-19T00:00:47.781Z,9.45
2018-04-19T00:03:15.544Z,9.85
2018-04-19T00:05:43.305Z,9.50
2018-04-19T00:08:11.005Z,10.10
2018-04-19T00:10:39.394Z,9.63
2018-04-19T00:13:07.850Z,10.00
2018-04-19T00:15:35.598Z,9.80
2018-04-19T00:18:03.362Z,10.00
2018-04-19T00:20:31.169Z,9.57
2018-04-19T00:22:58.921Z,9.10
2018-04-19T00:25:27.305Z,9.98
2018-04-19T00:27:55.135Z,9.73
2018-04-19T00:30:22.781Z,9.83
2018-04-19T00:32:50.476Z,9.70
2018-04-19T00:35:18.223Z,9.70
2018-04-19T00:37:45.885Z,9.67
2018-04-19T00:40:13.529Z,9.30
2018-04-19T00:42:41.148Z,8.80
2018-04-19T00:45:08.775Z,9.77
2018-04-19T00:47:36.642Z,9.17
2018-04-19T00:50:04.330Z,9.10
2018-04-19T00:52:43.864Z,9.30
2018-04-19T00:55:12.203Z,9.03
2018-04-19T00:57:41.211Z,9.55
2018-04-19T01:00:08.871Z,9.50
2018-04-19T01:02:36.641Z,9.45
2018-04-19T01:05:04.324Z,9.80
2018-04-19T01:07:32.097Z,9.33
2018-04-19T01:09:59.865Z,9.63
2018-04-19T01:12:27.529Z,10.10
2018-04-19T01:14:55.293Z,9.93
2018-04-19T01:17:23.844Z,9.50
2018-04-19T01:19:51.505Z,9.83
2018-04-19T01:22:19.169Z,10.00
2018-04-19T01:24:46.780Z,9.33
2018-04-19T01:27:14.597Z,9.38
2018-04-19T01:29:42.237Z,9.67
2018-04-19T01:32:09.949Z,8.70
2018-04-19T01:34:37.685Z,9.33
2018-04-19T01:37:06.098Z,9.30
2018-04-19T01:39:33.760Z,9.00
2018-04-19T01:42:01.360Z,9.38
2018-04-19T01:44:29.344Z,8.53
2018-04-19T01:46:57.020Z,9.57
2018-04-19T01:49:24.632Z,9.70
2018-04-19T01:51:53.045Z,9.83
2018-04-19T01:54:20.753Z,9.33
2018-04-19T01:56:48.385Z,9.18
2018-04-19T01:59:16.040Z,8.90
2018-04-19T02:01:43.680Z,8.67
2018-04-19T02:04:11.405Z,10.50
2018-04-19T02:06:39.114Z,9.77
2018-04-19T02:09:06.760Z,9.40
2018-04-19T02:11:34.484Z,8.83
2018-04-19T02:14:02.331Z,9.00
2018-04-19T02:16:29.944Z,9.70
2018-04-19T02:18:58.326Z,9.23
2018-04-19T02:21:26.957Z,9.00
2018-04-19T02:23:54.648Z,9.17
2018-04-19T02:26:22.384Z,9.30
2018-04-19T02:28:50.002Z,9.30
2018-04-19T02:31:18.415Z,9.57
2018-04-19T02:33:46.036Z,9.57
2018-04-19T02:36:14.675Z,10.00
2018-04-19T02:38:42.335Z,9.97
2018-04-19T02:41:10.886Z,10.77
2018-04-19T02:43:38.512Z,10.57
2018-04-19T02:46:06.241Z,10.13
2018-04-19T02:48:34.861Z,10.20
2018-04-19T02:51:02.700Z,9.63
2018-04-19T02:53:30.350Z,9.63
2018-04-19T02:55:57.988Z,9.93
2018-04-19T02:58:25.660Z,9.80
2018-04-19T03:00:53.281Z,9.03
2018-04-19T03:03:21.007Z,9.05
2018-04-19T03:05:48.771Z,9.50
2018-04-19T03:08:16.383Z,9.07
2018-04-19T03:10:44.930Z,9.10
2018-04-19T03:13:12.617Z,9.07
2018-04-19T03:15:41.170Z,9.17
2018-04-19T03:18:09.744Z,9.27
2018-04-19T03:20:37.347Z,9.27
2018-04-19T03:23:04.995Z,9.37
2018-04-19T03:25:33.473Z,8.97
2018-04-19T03:28:01.212Z,9.18
2018-04-19T03:30:28.863Z,9.20
2018-04-19T03:32:56.500Z,8.93
2018-04-19T03:35:25.044Z,8.77
2018-04-19T03:37:52.754Z,9.40
2018-04-19T03:40:20.372Z,8.83
2018-04-19T03:42:48.111Z,9.45
2018-04-19T03:45:15.787Z,8.93
2018-04-19T03:47:43.399Z,9.60
2018-04-19T03:50:11.009Z,9.40
2018-04-19T03:52:38.671Z,9.07
2018-04-19T03:55:06.341Z,9.47
2018-04-19T03:57:34.082Z,9.27
2018-04-19T04:00:01.757Z,9.53
2018-04-19T04:02:29.416Z,9.40
2018-04-19T04:04:57.019Z,9.80
2018-04-19T04:07:25.407Z,9.20
2018-04-19T04:09:54.117Z,9.55
2018-04-19T04:12:21.744Z,9.07
2018-04-19T04:14:50.180Z,8.90
2018-04-19T04:17:29.952Z,9.33
2018-04-19T04:20:09.388Z,8.73
2018-04-19T04:22:49.017Z,9.03
2018-04-19T04:25:16.680Z,9.23
2018-04-19T04:27:45.329Z,8.30
2018-04-19T04:30:13.163Z,8.57
2018-04-19T04:32:41.701Z,9.30
2018-04-19T04:35:09.466Z,9.20
2018-04-19T04:37:37.335Z,9.13
2018-04-19T04:40:04.943Z,9.30
2018-04-19T04:42:33.478Z,9.17
2018-04-19T04:45:01.105Z,8.73
2018-04-19T04:47:28.802Z,9.03
2018-04-19T04:49:56.601Z,9.07
2018-04-19T04:52:24.360Z,8.80
2018-04-19T04:54:52.096Z,8.33
2018-04-19T04:57:19.861Z,8.73
2018-04-19T04:59:47.523Z,8.40
2018-04-19T05:02:15.214Z,7.83
2018-04-19T05:04:42.859Z,8.13
2018-04-19T05:07:10.492Z,8.23
2018-04-19T05:09:38.168Z,8.23
2018-04-19T05:12:05.813Z,7.97
2018-04-19T05:14:33.466Z,8.00
2018-04-19T05:17:01.868Z,7.80
2018-04-19T05:19:29.641Z,8.30
2018-04-19T05:21:57.251Z,7.07
2018-04-19T05:24:25.789Z,7.83
2018-04-19T05:26:53.400Z,7.50
2018-04-19T05:29:21.776Z,7.50
2018-04-19T05:31:50.179Z,7.37
2018-04-19T05:34:18.620Z,7.53
2018-04-19T05:36:46.256Z,7.93
2018-04-19T05:39:13.908Z,7.30
2018-04-19T05:41:41.601Z,7.43
2018-04-19T05:44:09.216Z,7.10
2018-04-19T05:46:36.856Z,7.93
2018-04-19T05:49:05.285Z,8.13
2018-04-19T05:51:32.957Z,8.10
2018-04-19T05:54:00.571Z,8.10
2018-04-19T05:56:28.178Z,8.10
2018-04-19T05:58:55.957Z,7.97
2018-04-19T06:01:25.226Z,8.00
2018-04-19T06:03:52.899Z,8.10
2018-04-19T06:06:20.549Z,7.20
2018-04-19T06:08:48.245Z,7.70
2018-04-19T06:11:16.459Z,7.83
2018-04-19T06:13:44.072Z,7.33
2018-04-19T06:16:11.741Z,7.17
2018-04-19T06:18:40.217Z,7.27
2018-04-19T06:21:07.959Z,7.43
2018-04-19T06:23:35.597Z,6.53
2018-04-19T06:26:03.386Z,6.77
2018-04-19T06:28:31.037Z,6.90
2018-04-19T06:30:58.711Z,6.83
2018-04-19T06:33:26.402Z,7.20
2018-04-19T06:35:54.793Z,6.12
2018-04-19T06:38:23.260Z,6.33
2018-04-19T06:40:50.872Z,6.70
2018-04-19T06:43:18.583Z,6.07
2018-04-19T06:45:47.083Z,6.30
2018-04-19T06:48:14.828Z,5.73
2018-04-19T06:50:42.598Z,6.35
2018-04-19T06:53:10.437Z,6.63
2018-04-19T06:55:38.231Z,6.70
2018-04-19T06:58:05.881Z,6.80
2018-04-19T07:00:33.636Z,6.78
2018-04-19T07:03:01.292Z,6.10
2018-04-19T07:05:28.983Z,6.50
2018-04-19T07:07:56.821Z,6.45
2018-04-19T07:10:24.460Z,6.62
2018-04-19T07:12:52.157Z,6.12
2018-04-19T07:15:20.058Z,6.67
2018-04-19T07:17:48.516Z,6.95
2018-04-19T07:20:16.944Z,7.10
2018-04-19T07:22:44.586Z,7.20
2018-04-19T07:25:12.959Z,6.62
2018-04-19T07:27:40.917Z,7.17
2018-04-19T07:30:08.539Z,7.03
2018-04-19T07:32:36.164Z,7.20
2018-04-19T07:35:04.694Z,6.83
2018-04-19T07:37:32.309Z,7.20
2018-04-19T07:40:00.834Z,7.00
2018-04-19T07:42:28.533Z,7.80
2018-04-19T07:44:56.152Z,7.35
2018-04-19T07:47:23.923Z,8.23
2018-04-19T07:49:51.689Z,8.00
2018-04-19T07:52:19.498Z,8.03
2018-04-19T07:54:47.977Z,8.50
2018-04-19T07:57:16.356Z,8.73
2018-04-19T07:59:44.114Z,8.55
2018-04-19T08:02:12.663Z,8.33
2018-04-19T08:04:40.956Z,7.28
2018-04-19T08:07:08.815Z,7.87
2018-04-19T08:09:36.432Z,7.47
2018-04-19T08:12:04.881Z,8.40
2018-04-19T08:14:32.508Z,7.60
2018-04-19T08:17:00.121Z,8.03
2018-04-19T08:19:28.655Z,8.57
2018-04-19T08:21:56.275Z,8.87
2018-04-19T08:24:24.734Z,8.27
2018-04-19T08:26:52.401Z,8.37
2018-04-19T08:29:21.457Z,8.00
2018-04-19T08:31:49.120Z,8.90
2018-04-19T08:34:16.727Z,8.03
2018-04-19T08:36:45.138Z,8.83
2018-04-19T08:39:12.857Z,7.73
2018-04-19T08:41:40.621Z,8.80
2018-04-19T08:44:09.170Z,7.87
2018-04-19T08:46:36.844Z,8.40
2018-04-19T08:49:04.597Z,8.40
2018-04-19T08:51:32.209Z,8.90
2018-04-19T08:54:00.636Z,8.63
2018-04-19T08:56:28.333Z,8.87
2018-04-19T08:58:56.005Z,9.27
2018-04-19T09:01:24.547Z,9.47
2018-04-19T09:03:52.163Z,9.33
2018-04-19T09:06:20.569Z,9.18
2018-04-19T09:08:48.264Z,8.73
2018-04-19T09:11:16.018Z,9.53
2018-04-19T09:13:43.648Z,11.00
2018-04-19T09:16:11.264Z,9.50
2018-04-19T09:18:39.680Z,11.30
2018-04-19T09:21:08.088Z,11.35
2018-04-19T09:23:35.751Z,10.30
2018-04-19T09:26:03.531Z,11.07
2018-04-19T09:28:31.190Z,12.20
2018-04-19T09:30:58.849Z,12.87
2018-04-19T09:33:26.455Z,14.27
2018-04-19T09:35:54.278Z,12.37
2018-04-19T09:38:22.043Z,13.13
2018-04-19T09:40:49.720Z,12.97
2018-04-19T09:43:17.333Z,12.30
2018-04-19T09:45:44.977Z,12.60
2018-04-19T09:48:13.407Z,11.60
2018-04-19T09:50:41.095Z,11.13
2018-04-19T09:53:08.725Z,12.85
2018-04-19T09:55:36.447Z,13.38
2018-04-19T09:58:08.847Z,13.87
2018-04-19T10:00:42.065Z,17.47
2018-04-19T10:03:15.343Z,13.47
2018-04-19T10:05:47.783Z,11.20
2018-04-19T10:08:16.321Z,11.20
2018-04-19T10:10:44.418Z,11.10
2018-04-19T10:13:12.064Z,10.77
2018-04-19T10:15:39.813Z,11.20
2018-04-19T10:18:07.512Z,10.93
2018-04-19T10:20:35.141Z,10.53
2018-04-19T10:23:02.910Z,9.77
2018-04-19T10:25:30.539Z,10.40
2018-04-19T10:27:58.171Z,9.40
2018-04-19T10:30:26.608Z,11.73
2018-04-19T10:32:54.219Z,12.07
2018-04-19T10:35:23.517Z,22.50
2018-04-19T10:37:51.933Z,11.03
2018-04-19T10:40:19.714Z,9.05
2018-04-19T10:42:47.328Z,11.53
2018-04-19T10:45:15.863Z,10.03
2018-04-19T10:47:43.624Z,10.25
2018-04-19T10:50:11.388Z,9.48
2018-04-19T10:52:39.152Z,8.60
2018-04-19T10:55:06.769Z,9.27
2018-04-19T10:57:35.180Z,9.33
2018-04-19T11:00:02.903Z,10.83
2018-04-19T11:02:31.324Z,9.77
2018-04-19T11:04:59.022Z,10.40
2018-04-19T11:07:26.765Z,11.27
2018-04-19T11:09:54.409Z,11.60
2018-04-19T11:12:22.191Z,12.00
2018-04-19T11:14:49.866Z,11.00
2018-04-19T11:17:17.544Z,10.50
2018-04-19T11:19:45.215Z,11.02
2018-04-19T11:22:12.820Z,12.93
2018-04-19T11:24:40.640Z,13.10
2018-04-19T11:27:09.058Z,12.60
2018-04-19T11:29:36.684Z,12.03
2018-04-19T11:32:05.292Z,11.07
2018-04-19T11:34:33.676Z,12.13
2018-04-19T11:37:02.194Z,10.80
2018-04-19T11:39:29.958Z,10.27
2018-04-19T11:41:57.724Z,10.17
2018-04-19T11:44:25.365Z,10.83
2018-04-19T11:46:53.030Z,8.73
2018-04-19T11:49:20.749Z,9.07
2018-04-19T11:51:49.157Z,9.20
2018-04-19T11:54:16.800Z,9.30
2018-04-19T11:56:45.252Z,8.33
2018-04-19T11:59:12.996Z,9.17
2018-04-19T12:01:40.765Z,8.83
2018-04-19T12:04:08.529Z,9.37
2018-04-19T12:06:36.163Z,9.37
2018-04-19T12:09:03.958Z,7.97
2018-04-19T12:11:31.620Z,7.93
2018-04-19T12:13:59.234Z,7.87
2018-04-19T12:16:27.632Z,8.50
2018-04-19T12:18:55.305Z,9.30
2018-04-19T12:21:23.014Z,9.30
2018-04-19T12:23:50.642Z,8.13
2018-04-19T12:26:18.299Z,7.93
2018-04-19T12:28:46.075Z,9.47
2018-04-19T12:31:13.692Z,9.10
2018-04-19T12:33:42.095Z,8.20
2018-04-19T12:36:09.707Z,7.87
2018-04-19T12:38:37.441Z,8.03
2018-04-19T12:41:05.102Z,9.07
2018-04-19T12:43:33.538Z,9.02
2018-04-19T12:46:01.273Z,9.43
2018-04-19T12:48:28.925Z,9.30
2018-04-19T12:50:56.530Z,9.87
2018-04-19T12:53:24.896Z,9.57
2018-04-19T12:55:53.304Z,8.70
2018-04-19T12:58:21.098Z,10.40
2018-04-19T13:00:48.861Z,9.93
2018-04-19T13:03:16.727Z,10.97
2018-04-19T13:05:44.395Z,10.38
2018-04-19T13:08:12.041Z,11.17
2018-04-19T13:10:39.695Z,10.33
2018-04-19T13:13:07.484Z,8.57
2018-04-19T13:15:35.244Z,10.37
2018-04-19T13:18:02.895Z,9.67
2018-04-19T13:20:30.675Z,7.90
2018-04-19T13:22:58.296Z,8.60
2018-04-19T13:25:26.025Z,10.27
2018-04-19T13:27:54.405Z,9.17
2018-04-19T13:30:22.081Z,7.50
2018-04-19T13:32:50.470Z,8.10
2018-04-19T13:35:19.001Z,7.70
2018-04-19T13:37:46.668Z,8.20
2018-04-19T13:40:14.280Z,7.60
2018-04-19T13:42:41.915Z,7.70
2018-04-19T13:45:11.560Z,7.63
2018-04-19T13:47:39.358Z,7.57
2018-04-19T13:50:07.154Z,6.87
2018-04-19T13:52:36.354Z,6.93
2018-04-19T13:55:04.021Z,6.83
2018-04-19T13:57:31.750Z,6.23
2018-04-19T13:59:59.356Z,6.28
2018-04-19T14:02:27.734Z,6.87
2018-04-19T14:04:56.148Z,6.07
2018-04-19T14:07:23.940Z,5.93
2018-04-19T14:09:51.552Z,6.37
2018-04-19T14:12:20.182Z,6.10
2018-04-19T14:14:47.784Z,5.40
2018-04-19T14:17:15.507Z,4.93
2018-04-19T14:19:43.376Z,5.27
2018-04-19T14:22:11.072Z,5.60
2018-04-19T14:24:38.679Z,5.20
2018-04-19T14:27:06.315Z,5.17
2018-04-19T14:29:34.843Z,5.03
2018-04-19T14:32:02.637Z,5.83
2018-04-19T14:34:30.407Z,5.53
2018-04-19T14:36:58.138Z,5.27
2018-04-19T14:39:25.905Z,5.13
2018-04-19T14:41:53.605Z,5.43
2018-04-19T14:44:21.983Z,4.70
2018-04-19T14:46:49.709Z,4.93
2018-04-19T14:49:17.396Z,6.40
2018-04-19T14:51:45.072Z,5.57
2018-04-19T14:54:12.906Z,5.45
2018-04-19T14:56:40.587Z,4.43
2018-04-19T14:59:08.188Z,5.00
2018-04-19T15:01:36.560Z,5.53
2018-04-19T15:04:04.977Z,5.73
2018-04-19T15:06:34.046Z,6.12
2018-04-19T15:09:01.743Z,5.93
2018-04-19T15:11:29.384Z,5.93
2018-04-19T15:13:57.026Z,5.87
2018-04-19T15:16:25.425Z,6.00
2018-04-19T15:18:53.140Z,6.10
2018-04-19T15:21:20.788Z,6.60
2018-04-19T15:23:48.397Z,6.50
2018-04-19T15:26:16.789Z,5.40
2018-04-19T15:28:44.448Z,5.47
2018-04-19T15:31:12.242Z,4.90
2018-04-19T15:33:40.005Z,5.67
2018-04-19T15:36:07.657Z,5.30
2018-04-19T15:38:35.369Z,5.15
2018-04-19T15:41:03.828Z,5.55
2018-04-19T15:43:31.575Z,5.27
2018-04-19T15:45:59.348Z,4.87
2018-04-19T15:48:27.105Z,5.17
2018-04-19T15:50:54.717Z,5.50
2018-04-19T15:53:24.170Z,5.60
2018-04-19T15:55:51.828Z,5.13
2018-04-19T15:58:19.600Z,5.07
2018-04-19T16:00:47.290Z,5.20
2018-04-19T16:03:14.936Z,4.97
2018-04-19T16:05:42.546Z,5.60
2018-04-19T16:08:11.007Z,5.20
2018-04-19T16:10:39.379Z,4.80
2018-04-19T16:13:07.045Z,4.60
2018-04-19T16:15:35.452Z,4.80
2018-04-19T16:18:04.993Z,4.37
2018-04-19T16:20:32.617Z,4.87
2018-04-19T16:23:01.137Z,4.20
2018-04-19T16:25:28.798Z,4.17
2018-04-19T16:27:56.596Z,4.20
2018-04-19T16:30:24.328Z,4.13
2018-04-19T16:32:52.094Z,3.97
2018-04-19T16:35:19.857Z,3.90
2018-04-19T16:37:47.551Z,4.00
2018-04-19T16:40:15.175Z,4.17
2018-04-19T16:42:42.963Z,4.10
2018-04-19T16:45:10.578Z,3.73
2018-04-19T16:47:38.186Z,3.27
2018-04-19T16:50:05.828Z,3.47
2018-04-19T16:52:33.440Z,3.57
2018-04-19T16:55:02.792Z,4.27
2018-04-19T16:57:30.408Z,5.13
2018-04-19T16:59:58.860Z,3.50
2018-04-19T17:02:26.472Z,3.10
2018-04-19T17:04:54.100Z,3.20
2018-04-19T17:07:22.643Z,3.20
2018-04-19T17:09:50.407Z,2.90
2018-04-19T17:12:18.273Z,3.00
2018-04-19T17:14:46.166Z,3.67
2018-04-19T17:17:13.843Z,3.53
2018-04-19T17:19:41.671Z,3.67
2018-04-19T17:22:09.434Z,3.70
2018-04-19T17:24:37.091Z,3.50
2018-04-19T17:27:04.789Z,3.60
2018-04-19T17:29:32.553Z,3.57
2018-04-19T17:32:00.300Z,3.90
2018-04-19T17:34:27.913Z,3.93
2018-04-19T17:36:56.279Z,3.90
2018-04-19T17:39:24.689Z,4.10
2018-04-19T17:41:52.353Z,4.10
2018-04-19T17:44:19.968Z,4.28
2018-04-19T17:46:48.524Z,3.80
2018-04-19T17:49:16.281Z,4.23
2018-04-19T17:51:43.972Z,4.00
2018-04-19T17:54:14.085Z,4.60
2018-04-19T17:56:43.364Z,4.20
2018-04-19T17:59:11.012Z,4.03
2018-04-19T18:01:38.620Z,4.70
2018-04-19T18:04:07.052Z,4.60
2018-04-19T18:06:34.662Z,4.82
2018-04-19T18:09:02.396Z,4.60
2018-04-19T18:11:30.184Z,4.57
2018-04-19T18:13:57.796Z,4.47
2018-04-19T18:16:25.587Z,4.47
2018-04-19T18:18:53.277Z,4.97
2018-04-19T18:21:20.930Z,5.33
2018-04-19T18:23:48.539Z,4.50
2018-04-19T18:26:16.175Z,4.50
2018-04-19T18:28:43.795Z,5.30
2018-04-19T18:31:11.403Z,4.80
2018-04-19T18:33:39.828Z,5.20
2018-04-19T18:36:07.600Z,4.90
2018-04-19T18:38:35.366Z,5.43
2018-04-19T18:41:03.130Z,5.20
2018-04-19T18:43:30.928Z,4.70
2018-04-19T18:45:58.695Z,4.50
2018-04-19T18:48:26.304Z,4.85
2018-04-19T18:50:53.956Z,4.50
2018-04-19T18:53:21.677Z,4.77
2018-04-19T18:55:49.284Z,5.23
2018-04-19T18:58:16.922Z,5.57
2018-04-19T19:00:45.565Z,4.70
2018-04-19T19:03:13.168Z,4.80
2018-04-19T19:05:41.891Z,5.30
2018-04-19T19:08:09.543Z,4.97
2018-04-19T19:10:37.344Z,4.93
2018-04-19T19:13:05.102Z,4.93
2018-04-19T19:18:57.264Z,5.40
2018-04-19T19:21:25.844Z,5.70
2018-04-19T19:23:53.458Z,5.40
2018-04-19T19:26:21.831Z,5.57
2018-04-19T19:28:50.231Z,6.00
2018-04-19T19:31:17.957Z,5.83
2018-04-19T19:33:46.344Z,6.40
2018-04-19T19:36:14.886Z,6.00
2018-04-19T19:38:42.541Z,6.17
2018-04-19T19:41:10.150Z,8.37
2018-04-19T19:43:37.777Z,9.80
2018-04-19T19:46:05.640Z,8.30
2018-04-19T19:48:33.314Z,9.70
2018-04-19T19:51:01.018Z,8.32
2018-04-19T19:53:29.431Z,9.50
2018-04-19T19:55:57.210Z,9.80
2018-04-19T19:58:24.901Z,8.17
2018-04-19T20:00:52.560Z,7.93
2018-04-19T20:03:20.171Z,8.50
2018-04-19T20:05:47.862Z,7.00
2018-04-19T20:08:15.547Z,6.80
2018-04-19T20:10:43.195Z,7.07
2018-04-19T20:13:10.953Z,7.50
2018-04-19T20:15:38.611Z,8.10
2018-04-19T20:18:06.219Z,8.13
2018-04-19T20:20:34.756Z,8.20
2018-04-19T20:23:02.450Z,8.70
2018-04-19T20:25:30.424Z,8.63
2018-04-19T20:27:58.847Z,8.60
2018-04-19T20:30:26.456Z,8.82
2018-04-19T20:32:54.124Z,8.10
2018-04-19T20:35:21.727Z,9.10
2018-04-19T20:37:49.356Z,9.10
2018-04-19T20:40:17.105Z,8.43
2018-04-19T20:42:44.715Z,8.93
2018-04-19T20:45:12.434Z,8.90
2018-04-19T20:47:40.192Z,8.27
2018-04-19T20:50:07.854Z,9.77
2018-04-19T20:52:35.501Z,9.17
2018-04-19T20:55:03.285Z,9.18
2018-04-19T20:57:31.532Z,8.63
2018-04-19T20:59:59.191Z,9.47
2018-04-19T21:02:26.845Z,9.13
2018-04-19T21:04:54.556Z,10.17
2018-04-19T21:07:22.286Z,9.80
2018-04-19T21:09:50.052Z,9.40
2018-04-19T21:12:17.702Z,10.03
2018-04-19T21:14:45.405Z,10.53
2018-04-19T21:17:13.034Z,11.03
2018-04-19T21:19:40.644Z,10.43
2018-04-19T21:22:09.263Z,10.33
2018-04-19T21:24:36.890Z,10.23
2018-04-19T21:27:05.426Z,10.20
2018-04-19T21:29:33.222Z,10.30
2018-04-19T21:32:00.956Z,10.27
2018-04-19T21:34:28.604Z,10.40
2018-04-19T21:36:56.313Z,11.50
2018-04-19T21:39:23.937Z,11.47
2018-04-19T21:41:51.708Z,11.25
2018-04-19T21:44:19.334Z,10.53
2018-04-19T21:46:46.960Z,11.20
2018-04-19T21:49:14.644Z,11.20
2018-04-19T21:51:43.114Z,11.57
2018-04-19T21:54:10.765Z,10.90
2018-04-19T21:56:38.403Z,10.73
2018-04-19T21:59:06.074Z,11.23
2018-04-19T22:01:33.725Z,10.90
2018-04-19T22:04:01.417Z,10.27
2018-04-19T22:06:29.058Z,10.68
2018-04-19T22:08:56.690Z,9.90
2018-04-19T22:11:24.406Z,10.27
2018-04-19T22:13:52.243Z,10.43
2018-04-19T22:16:19.870Z,10.27
2018-04-19T22:18:47.516Z,10.57
2018-04-19T22:21:15.945Z,11.00
2018-04-19T22:23:43.601Z,10.60
2018-04-19T22:26:11.373Z,10.43
2018-04-19T22:28:39.021Z,10.50
2018-04-19T22:31:06.695Z,10.07
2018-04-19T22:33:34.320Z,9.90
2018-04-19T22:36:02.734Z,10.82
2018-04-19T22:38:30.606Z,10.75
2018-04-19T22:40:58.407Z,10.67
2018-04-19T22:43:26.848Z,10.82
2018-04-19T22:45:54.617Z,10.50
2018-04-19T22:48:22.828Z,10.43
2018-04-19T22:50:50.468Z,10.33
2018-04-19T22:53:18.426Z,10.50
2018-04-19T22:55:46.294Z,11.00
2018-04-19T22:58:13.920Z,11.00
2018-04-19T23:00:41.572Z,10.97
2018-04-19T23:03:10.097Z,11.13
2018-04-19T23:05:37.860Z,10.27
2018-04-19T23:08:05.626Z,10.70
2018-04-19T23:10:33.288Z,10.13
2018-04-19T23:13:01.157Z,11.00
2018-04-19T23:15:29.024Z,10.30
2018-04-19T23:17:56.787Z,10.57
2018-04-19T23:20:24.552Z,10.53
2018-04-19T23:22:52.419Z,10.50
2018-04-19T23:25:20.184Z,10.20
2018-04-19T23:27:47.868Z,11.00
2018-04-19T23:30:15.645Z,10.17
2018-04-19T23:32:43.293Z,10.00
2018-04-19T23:35:11.147Z,9.30
2018-04-19T23:37:38.843Z,10.70
2018-04-19T23:40:06.568Z,9.80
2018-04-19T23:42:34.435Z,9.80
2018-04-19T23:45:02.225Z,9.80
2018-04-19T23:47:29.964Z,9.63
2018-04-19T23:49:57.833Z,9.50
2018-04-19T23:52:25.493Z,9.47
2018-04-19T23:54:53.259Z,9.77
2018-04-19T23:57:20.956Z,9.40
2018-04-19T23:59:48.605Z,9.67
